createdAt,value
2023-02-24T00:01:19.472Z,76.34
2023-02-24T00:06:37.080Z,75.78
2023-02-24T00:11:44.385Z,76.01
2023-02-24T00:16:48.756Z,76.26
2023-02-24T00:21:55.151Z,75.88
2023-02-24T00:27:01.568Z,76.30
2023-02-24T00:32:08.462Z,76.13
2023-02-24T00:37:12.718Z,76.30
2023-02-24T00:42:16.986Z,76.98
2023-02-24T00:47:21.111Z,76.93
2023-02-24T00:52:28.738Z,76.98
2023-02-24T00:57:33.966Z,77.12
2023-02-24T01:02:39.249Z,77.22
2023-02-24T01:07:42.993Z,77.03
2023-02-24T01:12:54.646Z,77.15
2023-02-24T01:17:58.504Z,77.16
2023-02-24T01:23:04.073Z,77.38
2023-02-24T01:28:12.062Z,77.39
2023-02-24T01:33:16.227Z,77.47
2023-02-24T01:38:23.814Z,77.86
2023-02-24T01:43:28.811Z,77.69
2023-02-24T01:48:32.709Z,77.88
2023-02-24T01:53:37.048Z,77.97
2023-02-24T01:58:41.747Z,77.66
2023-02-24T02:03:45.915Z,78.07
2023-02-24T02:08:49.877Z,77.92
2023-02-24T02:13:54.792Z,78.18
2023-02-24T02:19:35.774Z,78.54
2023-02-24T02:24:52.083Z,78.70
2023-02-24T02:30:46.001Z,78.66
2023-02-24T02:36:03.808Z,78.44
2023-02-24T02:41:37.116Z,78.64
2023-02-24T02:47:14.254Z,78.73
2023-02-24T02:52:29.521Z,78.70
2023-02-24T02:57:35.479Z,78.73
2023-02-24T03:02:42.771Z,79.11
2023-02-24T03:07:52.058Z,78.71
2023-02-24T03:13:00.727Z,78.93
2023-02-24T03:18:13.007Z,78.50
2023-02-24T03:23:26.976Z,78.58
2023-02-24T03:28:40.405Z,78.11
2023-02-24T03:34:11.362Z,78.39
2023-02-24T03:39:16.549Z,78.40
2023-02-24T03:44:31.509Z,78.03
2023-02-24T03:49:39.087Z,77.48
2023-02-24T03:55:10.052Z,76.88
2023-02-24T04:00:26.484Z,76.67
2023-02-24T04:05:39.120Z,76.77
2023-02-24T04:11:25.638Z,76.39
2023-02-24T04:16:37.312Z,76.54
2023-02-24T04:21:44.185Z,76.66
2023-02-24T04:26:59.591Z,76.37
2023-02-24T04:32:11.838Z,75.82
2023-02-24T04:37:16.455Z,75.79
2023-02-24T04:42:23.370Z,75.69
2023-02-24T04:47:29.895Z,75.50
2023-02-24T04:52:34.662Z,75.73
2023-02-24T04:57:38.915Z,75.74
2023-02-24T05:02:42.709Z,75.84
2023-02-24T05:07:48.439Z,76.21
2023-02-24T05:12:54.539Z,75.66
2023-02-24T05:18:00.918Z,76.81
2023-02-24T05:23:04.821Z,76.95
2023-02-24T05:28:08.775Z,77.37
2023-02-24T05:33:14.191Z,78.06
2023-02-24T05:38:20.793Z,77.13
2023-02-24T05:43:27.025Z,77.54
2023-02-24T05:48:36.255Z,77.60
2023-02-24T05:53:43.877Z,77.76
2023-02-24T05:58:48.044Z,77.87
2023-02-24T06:03:54.952Z,78.07
2023-02-24T06:09:03.837Z,77.99
2023-02-24T06:14:09.001Z,78.30
2023-02-24T06:19:14.980Z,78.64
2023-02-24T06:24:20.296Z,78.79
2023-02-24T06:29:30.526Z,78.66
2023-02-24T06:34:34.374Z,78.47
2023-02-24T06:39:38.353Z,78.77
2023-02-24T06:45:00.884Z,77.52
2023-02-24T06:50:10.638Z,77.70
2023-02-24T06:55:27.042Z,77.59
2023-02-24T07:00:39.601Z,76.86
2023-02-24T07:06:12.156Z,77.09
2023-02-24T07:11:18.772Z,76.93
2023-02-24T07:16:29.430Z,77.25
2023-02-24T07:21:40.285Z,77.62
2023-02-24T07:26:46.024Z,77.73
2023-02-24T07:31:50.786Z,78.22
2023-02-24T07:36:56.508Z,78.02
2023-02-24T07:42:00.392Z,78.27
2023-02-24T07:47:08.553Z,78.18
2023-02-24T07:52:12.240Z,77.96
2023-02-24T07:57:16.436Z,78.19
2023-02-24T08:02:20.697Z,78.07
2023-02-24T08:07:25.705Z,78.39
2023-02-24T08:12:30.710Z,78.39
2023-02-24T08:17:35.274Z,78.33
2023-02-24T08:22:44.814Z,78.64
2023-02-24T08:28:12.626Z,78.58
2023-02-24T08:33:22.675Z,78.34
2023-02-24T08:38:40.712Z,78.37
2023-02-24T08:43:47.325Z,78.65
2023-02-24T08:48:56.345Z,77.93
2023-02-24T08:54:03.656Z,79.20
2023-02-24T08:59:08.410Z,78.91
2023-02-24T09:04:19.766Z,79.17
2023-02-24T09:09:23.658Z,79.47
2023-02-24T09:14:38.335Z,79.19
2023-02-24T09:19:52.493Z,79.59
2023-02-24T09:25:17.633Z,79.85
2023-02-24T09:30:36.731Z,80.65
2023-02-24T09:35:42.507Z,81.40
2023-02-24T09:40:50.991Z,81.54
2023-02-24T09:46:18.003Z,82.20
2023-02-24T09:51:23.484Z,82.51
2023-02-24T09:56:45.365Z,82.78
2023-02-24T10:02:03.198Z,83.29
2023-02-24T10:07:39.992Z,83.50
2023-02-24T10:12:43.886Z,84.10
2023-02-24T10:17:56.393Z,84.67
2023-02-24T10:23:10.699Z,84.93
2023-02-24T10:28:59.635Z,84.98
2023-02-24T10:34:09.875Z,85.42
2023-02-24T10:39:26.406Z,85.55
2023-02-24T10:44:37.292Z,85.65
2023-02-24T10:49:57.634Z,85.80
2023-02-24T10:55:27.347Z,86.25
2023-02-24T11:00:52.640Z,86.55
2023-02-24T11:06:05.728Z,86.19
2023-02-24T11:11:30.635Z,86.10
2023-02-24T11:17:08.507Z,86.42
2023-02-24T11:22:21.492Z,86.30
2023-02-24T11:27:27.284Z,86.74
2023-02-24T11:32:44.355Z,86.94
2023-02-24T11:38:14.709Z,86.90
2023-02-24T11:43:25.020Z,87.43
2023-02-24T11:48:36.577Z,87.33
2023-02-24T11:53:52.360Z,87.66
2023-02-24T11:59:29.842Z,87.43
2023-02-24T12:04:41.623Z,87.99
2023-02-24T12:09:56.317Z,87.80
2023-02-24T12:15:11.574Z,87.69
2023-02-24T12:20:35.623Z,87.63
2023-02-24T12:26:09.847Z,87.82
2023-02-24T12:31:46.651Z,87.57
2023-02-24T12:37:11.863Z,88.37
2023-02-24T12:42:46.055Z,88.08
2023-02-24T12:48:10.309Z,87.99
2023-02-24T12:53:23.646Z,88.06
2023-02-24T12:58:35.225Z,88.36
2023-02-24T13:04:03.795Z,88.25
2023-02-24T13:09:29.521Z,88.07
2023-02-24T13:14:39.815Z,88.26
2023-02-24T13:19:45.693Z,88.26
2023-02-24T13:24:55.662Z,88.67
2023-02-24T13:30:15.300Z,88.23
2023-02-24T13:35:22.036Z,88.62
2023-02-24T13:40:29.979Z,89.01
2023-02-24T13:45:42.703Z,88.14
2023-02-24T13:51:09.077Z,88.91
2023-02-24T13:56:42.745Z,88.92
2023-02-24T14:02:01.628Z,88.57
2023-02-24T14:07:11.565Z,88.79
2023-02-24T14:12:20.879Z,88.07
2023-02-24T14:17:27.325Z,88.79
2023-02-24T14:22:31.373Z,88.63
2023-02-24T14:27:35.357Z,88.09
2023-02-24T14:32:39.385Z,88.71
2023-02-24T14:37:43.453Z,88.74
2023-02-24T14:42:51.240Z,88.60
2023-02-24T14:47:57.251Z,88.38
2023-02-24T14:53:11.284Z,88.54
2023-02-24T14:58:23.124Z,88.48
2023-02-24T15:03:47.521Z,88.61
2023-02-24T15:08:59.211Z,88.68
2023-02-24T15:14:07.270Z,88.38
2023-02-24T15:19:34.298Z,88.38
2023-02-24T15:24:39.098Z,88.04
2023-02-24T15:29:45.347Z,87.94
2023-02-24T15:34:49.650Z,88.24
2023-02-24T15:40:08.251Z,88.64
2023-02-24T15:45:34.943Z,88.32
2023-02-24T15:50:40.125Z,87.89
2023-02-24T15:55:45.420Z,88.13
2023-02-24T16:00:54.027Z,88.38
2023-02-24T16:05:58.014Z,88.11
2023-02-24T16:11:02.040Z,87.65
2023-02-24T16:16:08.984Z,88.12
2023-02-24T16:21:14.392Z,88.52
2023-02-24T16:26:22.202Z,88.68
2023-02-24T16:31:27.365Z,88.43
2023-02-24T16:36:32.272Z,88.66
2023-02-24T16:41:36.190Z,88.81
2023-02-24T16:46:42.121Z,89.35
2023-02-24T16:51:46.505Z,89.36
2023-02-24T16:56:51.297Z,89.64
2023-02-24T17:01:56.059Z,89.55
2023-02-24T17:07:00.205Z,89.88
2023-02-24T17:12:04.470Z,90.17
2023-02-24T17:17:08.467Z,90.13
2023-02-24T17:22:12.253Z,89.75
2023-02-24T17:27:16.156Z,90.22
2023-02-24T17:32:20.567Z,89.82
2023-02-24T17:37:24.385Z,90.19
2023-02-24T17:42:28.769Z,90.04
2023-02-24T17:47:33.483Z,90.38
2023-02-24T17:52:37.969Z,89.78
2023-02-24T17:57:41.874Z,89.88
2023-02-24T18:02:46.108Z,89.56
2023-02-24T18:07:50.355Z,89.92
2023-02-24T18:12:54.188Z,89.21
2023-02-24T18:17:58.224Z,88.89
2023-02-24T18:23:02.044Z,88.50
2023-02-24T18:28:06.774Z,88.07
2023-02-24T18:33:11.061Z,87.85
2023-02-24T18:38:15.227Z,87.50
2023-02-24T18:43:19.177Z,87.06
2023-02-24T18:48:22.939Z,86.63
2023-02-24T18:53:30.338Z,86.75
2023-02-24T18:58:35.362Z,86.31
2023-02-24T19:03:39.261Z,85.99
2023-02-24T19:08:43.549Z,85.39
2023-02-24T19:13:48.990Z,84.61
2023-02-24T19:18:54.528Z,84.23
2023-02-24T19:24:09.674Z,84.10
2023-02-24T19:29:14.075Z,83.67
2023-02-24T19:34:18.078Z,83.59
2023-02-24T19:39:22.021Z,83.07
2023-02-24T19:44:25.992Z,82.39
2023-02-24T19:49:31.925Z,82.16
2023-02-24T19:54:36.023Z,81.80
2023-02-24T19:59:41.912Z,81.39
2023-02-24T20:04:46.342Z,80.99
2023-02-24T20:09:50.115Z,80.78
2023-02-24T20:14:53.892Z,80.47
2023-02-24T20:19:58.576Z,80.01
2023-02-24T20:25:02.318Z,79.79
2023-02-24T20:30:07.211Z,79.77
2023-02-24T20:35:11.551Z,79.59
2023-02-24T20:40:15.691Z,79.51
2023-02-24T20:45:19.637Z,79.84
2023-02-24T20:50:52.633Z,79.47
2023-02-24T20:56:02.743Z,79.25
2023-02-24T21:01:06.797Z,78.57
2023-02-24T21:06:13.043Z,78.36
2023-02-24T21:11:16.785Z,78.27
2023-02-24T21:16:22.566Z,77.59
2023-02-24T21:21:28.294Z,77.24
2023-02-24T21:26:32.063Z,77.53
2023-02-24T21:31:36.163Z,76.82
2023-02-24T21:36:40.189Z,77.05
2023-02-24T21:41:44.789Z,76.43
2023-02-24T21:46:48.773Z,76.08
2023-02-24T21:51:52.673Z,76.00
2023-02-24T21:56:56.835Z,76.28
2023-02-24T22:02:00.881Z,75.59
2023-02-24T22:07:04.883Z,75.70
2023-02-24T22:12:09.914Z,75.67
2023-02-24T22:17:14.941Z,75.10
2023-02-24T22:22:18.815Z,74.93
2023-02-24T22:27:22.766Z,75.01
2023-02-24T22:32:26.888Z,74.61
2023-02-24T22:37:31.082Z,74.35
2023-02-24T22:42:34.881Z,73.87
2023-02-24T22:47:39.979Z,74.46
2023-02-24T22:52:43.846Z,73.77
2023-02-24T22:57:48.068Z,73.83
2023-02-24T23:02:51.792Z,74.18
2023-02-24T23:07:55.812Z,73.58
2023-02-24T23:12:59.947Z,73.40
2023-02-24T23:18:03.793Z,72.89
2023-02-24T23:23:08.780Z,73.02
2023-02-24T23:28:12.627Z,72.72
2023-02-24T23:33:16.563Z,73.18
2023-02-24T23:38:20.715Z,72.96
2023-02-24T23:43:24.516Z,72.96
2023-02-24T23:48:28.470Z,72.79
2023-02-24T23:53:32.472Z,72.65
2023-02-24T23:58:40.921Z,72.50
